Aviation Digital Data Service (ADDS)

Output produced by METARs form (1951 UTC 31 May 2016)
found at http://www.aviationweather.gov/adds/metars/
 
KSEG 311853Z AUTO 00000KT 10SM FEW070 28/14 A2997 RMK AO2 SLP146 T02830144
KSEG 311753Z AUTO 10SM FEW055 28/15 A2998 RMK AO2 SLP148 T02780150 10283 20178 58013
KSEG 311653Z AUTO 00000KT 10SM CLR 27/16 A3000 RMK AO2 SLP156 T02670156
KSEG 311553Z AUTO 12003KT 10SM CLR 25/17 A3001 RMK AO2 SLP159 T02500167
KSEG 311453Z AUTO 00000KT 10SM CLR 23/18 A3002 RMK AO2 SLP162 T02280178 58001
KSEG 311353Z AUTO 00000KT 8SM FEW011 22/18 A3002 RMK AO2 SLP164 T02170178
KSEG 311337Z AUTO VRB03KT 7SM SCT011 21/17 A3003 RMK AO2 T02110172
KSEG 311305Z AUTO VRB03KT 7SM OVC010 20/17 A3003 RMK AO2 CIG 008V014 T02000172
KSEG 311253Z AUTO 00000KT 7SM OVC009 19/17 A3003 RMK AO2 CIG 007V012 SLP166 T01940172
KSEG 311219Z AUTO 32003KT 7SM OVC007 18/17 A3002 RMK AO2 CIG 004V010 T01780172
KSEG 311206Z AUTO 00000KT 5SM BR OVC005 18/17 A3002 RMK AO2 CIG 003V008 T01780172
KSEG 311153Z AUTO 00000KT 4SM BR OVC004 18/17 A3002 RMK AO2 CIG 001V008 SLP163 70047 T01780172 10178 20172 51010
KSEG 311151Z AUTO 00000KT 4SM BR OVC004 18/17 A3002 RMK AO2 CIG 001V008
KSEG 311140Z AUTO 00000KT 2SM BR OVC002 17/17 A3002 RMK AO2 T01720172
KSEG 311131Z AUTO 00000KT 1 1/4SM BR OVC002 18/17 A3002 RMK AO2 T01780172
KSEG 311053Z AUTO 00000KT 1/4SM FG VV002 17/17 A3001 RMK AO2 SLP160 T01720167
KSEG 310953Z AUTO 34003KT 1/4SM FG VV002 18/17 A2999 RMK AO2 SLP152 T01780172
KSEG 310853Z AUTO 00000KT 1/2SM FG VV002 17/17 A2998 RMK AO2 SLP149 T01720172 51004
KSEG 310753Z AUTO 31003KT 1/4SM FG VV002 17/17 A2998 RMK AO2 SLP147 T01720167
KSEG 310653Z AUTO 00000KT 1/4SM FG VV002 17/17 A2997 RMK AO2 SLP146 T01720172
KSEG 310621Z AUTO 00000KT 3/4SM BR OVC001 17/17 A2996 RMK AO2 T01720167
KSEG 310614Z AUTO 33004KT 1 3/4SM BR OVC001 18/17 A2997 RMK AO2 T01780172
KSEG 310609Z AUTO 00000KT 3SM BR OVC001 17/17 A2997 RMK AO2 T01720167
KSEG 310553Z AUTO 30003KT 1 1/4SM BR OVC001 17/17 A2997 RMK AO2 SLP144 T01720167 10211 20172 57005
KSEG 310548Z AUTO 29003KT 1 1/4SM BR OVC003 17/17 A2997 RMK AO2
KSEG 310533Z AUTO 00000KT 1/2SM FG VV004 17/17 A2997 RMK AO2 T01720167
KSEG 310509Z AUTO 00000KT 3/4SM BR VV005 17/17 A2997 RMK AO2 T01720167
KSEG 310505Z AUTO 00000KT 1 3/4SM BR BKN005 17/17 A2997 RMK AO2 T01720167
KSEG 310453Z AUTO 00000KT 2 1/2SM BR SCT005 17/17 A2997 RMK AO2 SLP148 T01720167 403000172
KSEG 310448Z AUTO 00000KT 3SM BR BKN005 17/17 A2997 RMK AO2
KSEG 310440Z AUTO 00000KT 2SM BR BKN003 17/17 A2997 RMK AO2 VIS 1 1/4V3 T01720167
KSEG 310434Z AUTO 00000KT 1 1/4SM BR SCT003 18/17 A2998 RMK AO2 T01780167
KSEG 310426Z AUTO 00000KT 2SM BR CLR 18/17 A2998 RMK AO2 T01830172
KSEG 310353Z AUTO 00000KT 5SM BR CLR 18/17 A2998 RMK AO2 SLP149 T01830172
KSEG 310314Z AUTO 00000KT 3SM BR FEW003 18/18 A2998 RMK AO2 T01830178
KSEG 310253Z AUTO 00000KT 7SM FEW085 19/18 A2998 RMK AO2 SLP151 T01890178 51008
KSEG 310153Z AUTO 00000KT 7SM CLR 19/18 A2998 RMK AO2 SLP150 T01890183
KSEG 310053Z AUTO 00000KT 10SM FEW120 20/18 A2997 RMK AO2 SLP145 T02000178
KSEG 302353Z AUTO 21003KT 10SM FEW044 FEW090 BKN110 21/18 A2996 RMK AO2 RAB34E43 SLP143 P0000 60047 T02110178 10300 20194 53000
KSEG 302253Z AUTO 00000KT 10SM BKN100 20/18 A2994 RMK AO2 LTG DSNT S RAE48 SLP135 P0003 T02000178
KSEG 302153Z AUTO 15007KT 6SM -RA BR SCT090 OVC110 21/18 A2995 RMK AO2 LTG DSNT SW SLP140 P0043 T02060183
KSEG 302128Z AUTO VRB03KT 3SM -RA BR SCT044 BKN070 OVC110 20/18 A2996 RMK AO2 LTG DSNT SW P0041 T02000183
KSEG 302112Z AUTO 09008KT 1 1/4SM +RA BR SCT038 BKN049 OVC070 19/18 A2996 RMK AO2 LTG DSNT W P0035 T01940183
KSEG 302108Z AUTO 09008KT 3/4SM +RA BR SCT034 BKN049 OVC060 19/18 A2996 RMK AO2 LTG DSNT W P0032 T01940183
KSEG 302100Z AUTO 36010KT 1SM +RA FEW028 OVC049 20/17 A2996 RMK AO2 VIS 1/2V5 LTG DSNT NE AND W P0017 T02000172
KSEG 302053Z AUTO 36010G15KT 8SM -RA OVC049 22/17 A2996 RMK AO2 LTG DSNT NE RAB39 SLP142 P0001 60001 T02170172 53002
KSEG 301953Z AUTO 17009G16KT 10SM CLR 29/16 A2991 RMK AO2 LTG DSNT N AND NW SLP125 T02940156
KSEG 301853Z AUTO 15011KT 10SM CLR 29/14 A2994 RMK AO2 SLP134 T02940144
KSEG 301753Z AUTO 14008KT 10SM CLR 29/17 A2995 RMK AO2 SLP139 T02890172 10289 20189 56019
KSEG 301653Z AUTO VRB06KT 10SM CLR 27/17 A2997 RMK AO2 SLP144 T02720172
KSEG 301553Z AUTO 23005KT 10SM CLR 26/17 A2999 RMK AO2 SLP152 T02560172
KSEG 301453Z AUTO 18006KT 10SM CLR 23/18 A3001 RMK AO2 SLP158 T02280178 58009
KSEG 301353Z AUTO VRB04KT 10SM CLR 21/18 A3002 RMK AO2 SLP164 T02110178
KSEG 301253Z AUTO 19004KT 10SM CLR 20/17 A3004 RMK AO2 SLP168 T02000172
KSEG 301153Z AUTO 00000KT 10SM CLR 19/17 A3004 RMK AO2 SLP168 60000 70006 T01890167 10194 20178 53008
KSEG 301053Z AUTO 00000KT 10SM CLR 18/17 A3002 RMK AO2 RAB12E35 SLP163 P0000 T01830167
KSEG 300953Z AUTO 00000KT 7SM BKN110 18/17 A3002 RMK AO2 SLP161 T01780167
KSEG 300853Z AUTO 00000KT 10SM CLR 18/17 A3001 RMK AO2 SLP159 T01830167 55007
KSEG 300753Z AUTO 18003KT 10SM CLR 18/16 A3001 RMK AO2 SLP158 T01830161